Time;durP1;ratioP1;P1;durP2;ratioP2;P2;SDS_P1;SDS_P2;PMS_P1;PMS_P2;Temp;Humidity;BMP_temperature;BMP_pressure;BME280_temperature;BME280_humidity;BME280_pressure;Samples;Min_cycle;Max_cycle;Signal;HPM_P1;HPM_P2
2023/07/01 00:01:40;;;;;;;4.90;4.50;;;18.10;99.90;;;;;;5065535;28;20212;-81
2023/07/01 00:04:07;;;;;;;4.57;4.27;;;18.20;99.90;;;;;;5065462;28;20294;-82
2023/07/01 00:06:34;;;;;;;5.20;4.80;;;18.10;99.90;;;;;;5064793;28;20203;-80
2023/07/01 00:09:02;;;;;;;5.17;4.37;;;18.00;99.90;;;;;;5065286;28;20203;-80
2023/07/01 00:11:29;;;;;;;4.63;4.23;;;18.00;99.90;;;;;;5064627;28;20259;-82
2023/07/01 00:13:56;;;;;;;5.53;4.53;;;18.00;99.90;;;;;;5064652;28;20199;-82
2023/07/01 00:16:23;;;;;;;4.93;4.37;;;18.00;99.90;;;;;;5064657;28;20207;-79
2023/07/01 00:18:50;;;;;;;4.67;4.27;;;17.90;99.90;;;;;;5064376;28;20657;-77
2023/07/01 00:21:17;;;;;;;4.60;4.27;;;17.90;99.90;;;;;;5064563;28;20298;-77
2023/07/01 00:23:44;;;;;;;5.17;4.63;;;17.80;99.90;;;;;;5065161;28;20212;-81
2023/07/01 00:26:12;;;;;;;5.13;4.67;;;17.80;99.90;;;;;;5064581;28;20215;-80
2023/07/01 00:28:39;;;;;;;5.23;4.73;;;17.80;99.90;;;;;;5064555;28;20216;-78
2023/07/01 00:31:06;;;;;;;5.00;4.63;;;17.80;99.90;;;;;;5064812;28;20207;-82
2023/07/01 00:33:32;;;;;;;5.20;4.70;;;17.80;99.90;;;;;;5064872;28;20299;-82
2023/07/01 00:35:59;;;;;;;4.53;4.23;;;17.80;99.90;;;;;;5064933;28;20207;-82
2023/07/01 00:38:26;;;;;;;5.07;4.63;;;17.80;99.90;;;;;;5064683;28;20211;-81
2023/07/01 00:40:53;;;;;;;6.20;4.70;;;17.80;99.90;;;;;;5064488;28;20278;-82
2023/07/01 00:43:21;;;;;;;4.37;4.03;;;17.80;99.90;;;;;;5064089;28;20228;-82
2023/07/01 00:45:48;;;;;;;5.67;4.77;;;17.90;99.90;;;;;;5064505;28;20207;-79
2023/07/01 00:48:23;;;;;;;4.97;4.47;;;17.90;99.90;;;;;;5064875;28;20302;-79
2023/07/01 00:50:50;;;;;;;5.03;4.57;;;18.00;99.90;;;;;;5064469;28;20222;-79
2023/07/01 00:53:17;;;;;;;4.63;4.33;;;18.10;99.90;;;;;;5064932;28;20505;-79
2023/07/01 00:55:44;;;;;;;4.13;3.93;;;18.10;99.90;;;;;;5066224;28;20944;-79
2023/07/01 00:58:11;;;;;;;4.73;4.43;;;18.20;99.90;;;;;;5069663;28;20290;-78
2023/07/01 01:00:39;;;;;;;5.03;4.70;;;18.20;99.90;;;;;;5070162;28;20215;-79
2023/07/01 01:03:21;;;;;;;4.60;4.20;;;18.20;99.90;;;;;;5069597;28;20221;-78
2023/07/01 01:05:52;;;;;;;4.10;3.90;;;18.30;99.90;;;;;;5069584;28;20195;-79
2023/07/01 01:08:25;;;;;;;4.63;4.13;;;18.20;99.90;;;;;;5069563;28;20243;-79
2023/07/01 01:10:54;;;;;;;5.03;4.63;;;18.30;99.90;;;;;;5068179;28;20286;-80
2023/07/01 01:13:22;;;;;;;5.17;4.80;;;18.30;99.90;;;;;;5068218;28;20328;-79
2023/07/01 01:15:51;;;;;;;4.77;4.17;;;18.20;99.90;;;;;;5068937;28;20242;-79
2023/07/01 01:18:20;;;;;;;4.20;3.97;;;18.20;99.90;;;;;;5068717;28;20222;-80
2023/07/01 01:20:51;;;;;;;4.80;4.40;;;18.10;99.90;;;;;;5068829;28;20288;-80
2023/07/01 01:23:25;;;;;;;4.43;4.23;;;18.20;99.90;;;;;;5069349;28;20211;-79
2023/07/01 01:26:00;;;;;;;4.10;3.80;;;18.30;99.90;;;;;;5068235;28;20283;-80
2023/07/01 01:28:28;;;;;;;4.73;4.10;;;18.30;99.90;;;;;;5066908;28;20191;-80
2023/07/01 01:30:55;;;;;;;4.27;3.97;;;18.30;99.90;;;;;;5067009;28;20286;-80
2023/07/01 01:33:22;;;;;;;4.30;4.00;;;18.40;99.90;;;;;;5067588;28;20662;-81
2023/07/01 01:35:49;;;;;;;4.57;4.27;;;18.40;99.90;;;;;;5067877;28;20207;-80
2023/07/01 01:38:20;;;;;;;5.97;3.80;;;18.40;99.90;;;;;;5067935;28;20246;-80
2023/07/01 01:40:52;;;;;;;3.77;3.57;;;18.50;99.90;;;;;;5067840;28;20650;-79
2023/07/01 01:43:26;;;;;;;4.53;4.10;;;18.50;99.90;;;;;;5068194;28;20273;-79
2023/07/01 01:45:55;;;;;;;4.30;3.90;;;18.50;99.90;;;;;;5067338;28;20191;-79
2023/07/01 01:48:23;;;;;;;3.87;3.67;;;18.60;99.90;;;;;;5066691;28;20200;-79
2023/07/01 01:50:53;;;;;;;4.53;4.00;;;18.50;99.90;;;;;;5067341;28;20306;-79
2023/07/01 01:53:21;;;;;;;4.63;4.13;;;18.50;99.90;;;;;;5067559;28;20334;-79
2023/07/01 01:55:49;;;;;;;4.67;4.37;;;18.60;99.90;;;;;;5067473;28;20306;-79
2023/07/01 01:58:16;;;;;;;5.40;4.10;;;18.60;99.90;;;;;;5067853;28;20203;-79
2023/07/01 02:00:45;;;;;;;4.63;4.33;;;18.60;99.90;;;;;;5068060;28;20250;-79
2023/07/01 02:03:13;;;;;;;4.67;4.27;;;18.60;99.90;;;;;;5067831;28;20293;-79
2023/07/01 02:05:40;;;;;;;4.90;4.60;;;18.60;99.90;;;;;;5067485;28;20207;-78
2023/07/01 02:08:07;;;;;;;5.10;4.70;;;18.60;99.90;;;;;;5067197;28;20230;-79
2023/07/01 02:10:34;;;;;;;4.67;4.40;;;18.60;99.90;;;;;;5066656;28;20215;-81
2023/07/01 02:13:02;;;;;;;4.97;4.47;;;18.60;99.90;;;;;;5066786;28;20706;-81
2023/07/01 02:15:29;;;;;;;5.00;4.50;;;18.60;99.90;;;;;;5066369;28;20383;-81
2023/07/01 02:17:56;;;;;;;5.20;4.80;;;18.60;99.90;;;;;;5066369;28;20736;-81
2023/07/01 02:20:24;;;;;;;5.70;5.20;;;18.60;99.90;;;;;;5065723;28;20294;-81
2023/07/01 02:22:51;;;;;;;5.30;4.90;;;18.60;99.90;;;;;;5066280;28;20303;-82
2023/07/01 02:25:18;;;;;;;5.17;4.87;;;18.60;99.90;;;;;;5066050;28;20215;-82
2023/07/01 02:27:45;;;;;;;4.77;4.53;;;18.60;99.90;;;;;;5066282;28;20209;-82
2023/07/01 02:30:12;;;;;;;5.30;4.90;;;18.60;99.90;;;;;;5066100;28;20993;-83
2023/07/01 02:32:39;;;;;;;5.00;4.60;;;18.60;99.90;;;;;;5066348;28;20318;-81
2023/07/01 02:35:07;;;;;;;5.50;5.20;;;18.60;99.90;;;;;;5066542;28;20290;-82
2023/07/01 02:37:35;;;;;;;5.27;4.87;;;18.60;99.90;;;;;;5066157;28;20247;-82
2023/07/01 02:40:04;;;;;;;5.20;4.80;;;18.60;99.90;;;;;;5065858;28;20314;-82
2023/07/01 02:42:31;;;;;;;6.83;5.27;;;18.60;99.90;;;;;;5066110;28;20227;-81
2023/07/01 02:44:58;;;;;;;5.97;5.47;;;18.70;99.90;;;;;;5066287;28;20211;-81
2023/07/01 02:47:25;;;;;;;6.23;5.63;;;18.70;99.90;;;;;;5066059;28;20214;-79
2023/07/01 02:49:52;;;;;;;5.10;4.70;;;18.70;99.90;;;;;;5065987;28;20199;-78
2023/07/01 02:52:19;;;;;;;6.03;5.53;;;18.70;99.90;;;;;;5065364;28;20322;-78
2023/07/01 02:54:47;;;;;;;5.53;5.00;;;18.70;99.90;;;;;;5066049;28;20214;-77
2023/07/01 02:57:14;;;;;;;5.73;5.33;;;18.70;99.90;;;;;;5065888;28;20230;-77
2023/07/01 02:59:41;;;;;;;5.90;5.47;;;18.70;99.90;;;;;;5065918;28;20231;-77
2023/07/01 03:02:08;;;;;;;6.73;6.07;;;18.70;99.90;;;;;;5065537;28;20352;-77
2023/07/01 03:04:35;;;;;;;5.60;5.20;;;18.70;99.90;;;;;;5064969;28;20301;-77
2023/07/01 03:07:04;;;;;;;5.80;5.40;;;18.60;99.90;;;;;;5065439;28;20883;-80
2023/07/01 03:09:31;;;;;;;5.80;5.27;;;18.70;99.90;;;;;;5065068;28;20220;-79
2023/07/01 03:11:59;;;;;;;5.90;5.50;;;18.60;99.90;;;;;;5065130;28;20322;-81
2023/07/01 03:14:26;;;;;;;6.20;5.80;;;18.40;99.90;;;;;;5064805;28;20824;-80
2023/07/01 03:16:53;;;;;;;6.00;5.57;;;18.40;99.90;;;;;;5065531;28;20207;-79
2023/07/01 03:19:20;;;;;;;5.97;5.30;;;18.40;99.90;;;;;;5064186;28;20765;-79
2023/07/01 03:21:47;;;;;;;5.80;5.40;;;18.40;99.90;;;;;;5064979;28;20670;-79
2023/07/01 03:24:14;;;;;;;6.30;5.90;;;18.40;99.90;;;;;;5065206;28;20670;-79
2023/07/01 03:26:42;;;;;;;6.23;5.70;;;18.40;99.90;;;;;;5065514;28;20203;-80
2023/07/01 03:29:10;;;;;;;6.30;5.70;;;18.30;99.90;;;;;;5064596;28;20199;-79
2023/07/01 03:31:37;;;;;;;6.20;5.60;;;18.20;99.90;;;;;;5064429;28;20856;-80
2023/07/01 03:34:04;;;;;;;6.50;5.90;;;18.10;99.90;;;;;;5064932;28;20321;-79
2023/07/01 03:36:31;;;;;;;6.67;6.00;;;17.90;99.90;;;;;;5064843;28;20311;-80
2023/07/01 03:38:58;;;;;;;6.40;5.90;;;17.80;99.90;;;;;;5065420;28;20225;-79
2023/07/01 03:41:25;;;;;;;7.20;6.60;;;17.70;99.90;;;;;;5065245;28;20235;-80
2023/07/01 03:43:52;;;;;;;7.20;6.57;;;17.60;99.90;;;;;;5065139;28;20261;-80
2023/07/01 03:46:20;;;;;;;8.57;6.73;;;17.50;99.90;;;;;;5065152;28;20322;-80
2023/07/01 03:48:47;;;;;;;7.57;6.67;;;17.50;99.90;;;;;;5065329;28;20306;-81
2023/07/01 03:51:15;;;;;;;7.40;6.90;;;17.40;99.90;;;;;;5065008;28;20747;-80
2023/07/01 03:53:42;;;;;;;12.17;6.90;;;17.40;99.90;;;;;;5045281;28;20257;-80
2023/07/01 03:56:09;;;;;;;10.27;6.90;;;17.40;99.90;;;;;;5044987;28;20315;-80
2023/07/01 03:58:36;;;;;;;8.70;6.97;;;17.40;99.90;;;;;;5046507;28;20688;-82
2023/07/01 04:01:04;;;;;;;7.60;7.00;;;17.40;99.90;;;;;;5064838;28;20330;-82
2023/07/01 04:03:33;;;;;;;7.20;6.60;;;17.40;99.90;;;;;;5064993;28;20214;-82
2023/07/01 04:06:00;;;;;;;7.17;6.57;;;17.40;99.90;;;;;;5044827;28;20737;-82
2023/07/01 04:08:28;;;;;;;7.17;6.47;;;17.50;99.90;;;;;;5044736;28;20212;-81
2023/07/01 04:10:56;;;;;;;8.10;7.10;;;17.60;99.90;;;;;;5044899;28;20211;-78
2023/07/01 04:13:22;;;;;;;7.37;6.63;;;17.70;99.90;;;;;;5044564;28;20317;-79
2023/07/01 04:15:49;;;;;;;7.77;7.17;;;17.60;99.90;;;;;;5062746;28;20744;-79
2023/07/01 04:18:16;;;;;;;7.40;6.80;;;17.70;99.90;;;;;;5064635;28;20578;-79
2023/07/01 04:20:44;;;;;;;7.90;7.17;;;17.70;99.90;;;;;;5064263;28;20213;-79
2023/07/01 04:23:11;;;;;;;7.33;6.73;;;17.60;99.90;;;;;;5064926;28;20318;-80
2023/07/01 04:25:39;;;;;;;7.10;6.50;;;17.50;99.90;;;;;;5064837;28;20291;-79
2023/07/01 04:28:08;;;;;;;6.60;6.20;;;17.50;99.90;;;;;;5064873;28;20214;-81
2023/07/01 04:30:35;;;;;;;7.30;6.67;;;17.40;99.90;;;;;;5065017;28;20237;-81
2023/07/01 04:33:02;;;;;;;7.00;6.40;;;17.40;99.90;;;;;;5068661;28;20259;-81
2023/07/01 04:35:29;;;;;;;6.37;5.87;;;17.40;99.90;;;;;;5068439;28;20311;-80
2023/07/01 04:37:57;;;;;;;7.23;6.53;;;17.50;99.90;;;;;;5061498;28;20243;-81
2023/07/01 04:40:24;;;;;;;6.43;6.00;;;17.50;99.90;;;;;;5067793;28;20880;-80
2023/07/01 04:42:51;;;;;;;7.17;6.47;;;17.50;99.90;;;;;;5068100;28;20235;-81
2023/07/01 04:45:19;;;;;;;7.07;6.47;;;17.40;99.90;;;;;;5067752;28;20238;-80
2023/07/01 04:47:46;;;;;;;7.17;6.57;;;17.40;99.90;;;;;;5067928;28;20211;-80
2023/07/01 04:50:14;;;;;;;6.77;6.27;;;17.30;99.90;;;;;;5067690;28;20204;-78
2023/07/01 04:52:41;;;;;;;6.90;6.20;;;17.30;99.90;;;;;;5067390;28;20447;-78
2023/07/01 04:55:10;;;;;;;7.30;6.60;;;17.30;99.90;;;;;;5068043;28;20207;-78
2023/07/01 04:57:37;;;;;;;6.23;5.80;;;17.30;99.90;;;;;;5067622;28;20258;-80
2023/07/01 05:00:07;;;;;;;7.37;6.43;;;17.30;99.90;;;;;;5067333;28;20284;-80
2023/07/01 05:02:34;;;;;;;6.27;5.87;;;17.30;99.90;;;;;;5067618;28;20647;-80
2023/07/01 05:05:01;;;;;;;7.90;6.10;;;17.30;99.90;;;;;;5068603;28;20206;-81
2023/07/01 05:07:27;;;;;;;6.87;6.00;;;17.40;99.90;;;;;;5067971;28;20797;-80
2023/07/01 05:09:54;;;;;;;5.97;5.37;;;17.60;99.90;;;;;;5068256;28;20745;-81
2023/07/01 05:12:23;;;;;;;7.10;6.40;;;17.70;99.90;;;;;;5068209;28;20239;-80
2023/07/01 05:14:49;;;;;;;6.07;5.73;;;17.70;99.90;;;;;;5068368;28;20298;-79
2023/07/01 05:17:16;;;;;;;6.27;5.73;;;17.60;99.90;;;;;;5067942;28;20199;-77
2023/07/01 05:19:43;;;;;;;6.17;5.63;;;17.50;99.90;;;;;;5068460;28;20217;-77
2023/07/01 05:22:10;;;;;;;6.07;5.67;;;17.60;99.90;;;;;;5067783;28;20306;-78
2023/07/01 05:24:37;;;;;;;6.13;5.60;;;17.60;99.90;;;;;;5067686;28;20231;-78
2023/07/01 05:27:05;;;;;;;5.97;5.40;;;17.60;99.90;;;;;;5067743;28;20261;-78
2023/07/01 05:29:33;;;;;;;7.07;5.50;;;17.60;99.90;;;;;;5067135;28;20448;-78
2023/07/01 05:32:00;;;;;;;5.40;4.97;;;17.60;99.90;;;;;;5067329;28;20203;-79
2023/07/01 05:34:27;;;;;;;6.23;5.00;;;17.70;99.90;;;;;;5057738;28;20330;-78
2023/07/01 05:36:55;;;;;;;6.00;5.50;;;17.80;99.90;;;;;;5053281;28;20211;-80
2023/07/01 05:39:22;;;;;;;6.93;5.40;;;17.80;99.90;;;;;;5065406;28;20783;-78
2023/07/01 05:41:49;;;;;;;6.23;5.13;;;17.80;99.90;;;;;;5065509;28;20199;-79
2023/07/01 05:44:16;;;;;;;5.20;4.70;;;17.80;99.90;;;;;;5065625;28;20310;-78
2023/07/01 05:46:44;;;;;;;7.50;4.83;;;17.70;99.90;;;;;;5065472;28;20211;-79
2023/07/01 05:49:11;;;;;;;7.33;4.77;;;17.70;99.90;;;;;;5065422;28;20873;-79
2023/07/01 05:51:38;;;;;;;7.33;4.60;;;17.60;99.90;;;;;;5065497;28;20203;-78
2023/07/01 05:54:05;;;;;;;4.67;4.27;;;17.70;99.90;;;;;;5065761;28;20577;-79
2023/07/01 05:56:32;;;;;;;5.27;4.53;;;17.80;99.90;;;;;;5065677;28;20648;-78
2023/07/01 05:58:59;;;;;;;5.00;3.90;;;17.80;99.90;;;;;;5065165;28;20300;-78
2023/07/01 06:01:26;;;;;;;5.10;4.27;;;17.90;99.90;;;;;;5065148;28;20762;-78
2023/07/01 06:03:58;;;;;;;4.90;4.50;;;17.90;99.90;;;;;;5065529;28;20239;-78
2023/07/01 06:06:25;;;;;;;5.27;4.03;;;18.00;99.90;;;;;;5065482;28;20282;-79
2023/07/01 06:08:52;;;;;;;4.70;3.83;;;18.00;99.90;;;;;;5064863;28;20215;-79
2023/07/01 06:11:19;;;;;;;4.30;3.90;;;18.00;99.90;;;;;;5064788;28;20208;-79
2023/07/01 06:13:46;;;;;;;4.93;4.30;;;18.00;99.90;;;;;;5064862;28;20324;-77
2023/07/01 06:16:13;;;;;;;5.63;4.67;;;18.10;99.90;;;;;;5065236;28;20215;-76
2023/07/01 06:18:41;;;;;;;5.30;4.23;;;18.10;99.90;;;;;;5064633;28;20210;-77
2023/07/01 06:21:09;;;;;;;4.73;3.63;;;18.20;99.90;;;;;;5064457;28;20626;-77
2023/07/01 06:23:37;;;;;;;4.30;3.70;;;18.30;99.90;;;;;;5064476;28;20310;-77
2023/07/01 06:26:04;;;;;;;4.00;3.70;;;18.30;99.90;;;;;;5064599;28;20208;-77
2023/07/01 06:28:32;;;;;;;4.20;3.80;;;18.30;99.90;;;;;;5064426;28;20203;-77
2023/07/01 06:30:59;;;;;;;4.43;3.50;;;18.40;99.90;;;;;;5062530;28;20237;-76
2023/07/01 06:33:26;;;;;;;4.07;3.67;;;18.40;99.90;;;;;;5064839;28;20231;-76
2023/07/01 06:35:53;;;;;;;4.00;3.67;;;18.40;99.90;;;;;;5064678;28;20294;-77
2023/07/01 06:38:21;;;;;;;3.70;3.30;;;18.50;99.90;;;;;;5064551;28;20298;-76
2023/07/01 06:40:48;;;;;;;5.43;3.90;;;18.50;99.90;;;;;;5063904;28;20238;-78
2023/07/01 06:43:15;;;;;;;3.83;3.47;;;18.50;99.90;;;;;;5064152;28;20322;-76
2023/07/01 06:45:44;;;;;;;3.77;3.27;;;18.60;99.90;;;;;;5065171;28;20296;-77
2023/07/01 06:48:11;;;;;;;7.10;3.20;;;18.70;99.90;;;;;;5065212;28;20576;-78
2023/07/01 06:50:39;;;;;;;5.20;3.37;;;18.80;99.90;;;;;;5065372;28;20257;-77
2023/07/01 06:53:06;;;;;;;3.87;3.57;;;18.80;99.90;;;;;;5064874;28;20276;-77
2023/07/01 06:55:37;;;;;;;4.93;3.80;;;18.90;99.90;;;;;;5066031;28;20207;-78
2023/07/01 06:58:04;;;;;;;3.77;3.40;;;19.00;99.90;;;;;;5065704;28;20199;-77
2023/07/01 07:00:31;;;;;;;3.50;2.90;;;19.10;99.90;;;;;;5065764;28;20231;-77
2023/07/01 07:02:58;;;;;;;3.27;2.97;;;19.10;99.90;;;;;;5065749;28;20207;-77
2023/07/01 07:05:25;;;;;;;3.10;2.80;;;19.20;99.90;;;;;;5065357;28;20722;-77
2023/07/01 07:07:53;;;;;;;5.43;2.80;;;19.20;99.90;;;;;;5049967;28;20212;-77
2023/07/01 07:10:20;;;;;;;5.00;3.13;;;19.40;99.90;;;;;;5045236;28;20282;-77
2023/07/01 07:12:48;;;;;;;2.60;2.50;;;19.40;99.90;;;;;;5045102;28;20208;-79
2023/07/01 07:15:15;;;;;;;3.50;2.50;;;19.40;99.90;;;;;;5058829;28;20258;-77
2023/07/01 07:17:42;;;;;;;2.83;2.17;;;19.50;99.90;;;;;;5065503;28;20210;-77
2023/07/01 07:20:09;;;;;;;2.60;2.17;;;19.50;99.90;;;;;;5065462;28;20298;-78
2023/07/01 07:22:36;;;;;;;2.00;1.90;;;19.60;99.90;;;;;;5064990;28;20322;-78
2023/07/01 07:25:03;;;;;;;2.80;2.40;;;19.70;99.90;;;;;;5065598;28;20357;-79
2023/07/01 07:27:30;;;;;;;3.03;2.07;;;19.80;99.90;;;;;;5065345;28;20211;-78
2023/07/01 07:29:58;;;;;;;2.17;2.00;;;19.80;99.90;;;;;;5064790;28;20206;-78
2023/07/01 07:32:25;;;;;;;2.50;1.90;;;19.90;99.90;;;;;;5064925;28;20672;-78
2023/07/01 07:34:52;;;;;;;1.77;1.67;;;20.00;99.90;;;;;;5064683;28;20986;-78
2023/07/01 07:37:19;;;;;;;3.37;1.80;;;20.00;99.90;;;;;;5064824;28;20211;-78
2023/07/01 07:39:46;;;;;;;2.10;1.87;;;20.00;99.90;;;;;;5064810;28;20239;-79
2023/07/01 07:42:13;;;;;;;2.50;1.80;;;20.00;99.90;;;;;;5065041;28;20894;-78
2023/07/01 07:44:41;;;;;;;2.87;1.80;;;20.00;99.90;;;;;;5060112;28;20941;-78
2023/07/01 07:47:10;;;;;;;2.73;2.10;;;20.00;99.90;;;;;;5045215;28;20764;-78
2023/07/01 07:49:36;;;;;;;3.07;1.87;;;20.00;99.90;;;;;;5059213;28;20215;-78
2023/07/01 07:52:04;;;;;;;2.67;1.80;;;20.10;99.90;;;;;;5065266;28;20250;-78
2023/07/01 07:54:31;;;;;;;3.03;1.90;;;20.10;99.90;;;;;;5064807;28;20310;-78
2023/07/01 07:56:59;;;;;;;1.90;1.70;;;20.20;99.90;;;;;;5065084;28;20298;-78
2023/07/01 07:59:27;;;;;;;2.07;1.83;;;20.20;99.90;;;;;;5064908;28;20367;-78
2023/07/01 08:01:54;;;;;;;2.53;1.70;;;20.20;99.90;;;;;;5065170;28;20208;-78
2023/07/01 08:04:22;;;;;;;2.10;2.00;;;20.30;99.90;;;;;;5065538;28;20672;-79
2023/07/01 08:06:49;;;;;;;3.73;1.90;;;20.40;99.90;;;;;;5068674;28;20316;-78
2023/07/01 08:09:16;;;;;;;4.63;3.37;;;20.40;99.90;;;;;;5068718;28;20199;-78
2023/07/01 08:11:43;;;;;;;5.30;4.80;;;20.50;99.90;;;;;;5069144;28;20210;-78
2023/07/01 08:14:10;;;;;;;1.63;1.53;;;20.60;99.90;;;;;;5069090;28;20325;-79
2023/07/01 08:16:38;;;;;;;1.70;1.60;;;20.60;99.90;;;;;;5068946;28;20298;-78
2023/07/01 08:19:05;;;;;;;1.93;1.80;;;20.50;99.90;;;;;;5068925;28;20214;-78
2023/07/01 08:21:35;;;;;;;2.07;1.70;;;20.60;99.90;;;;;;5068213;28;20242;-78
2023/07/01 08:24:02;;;;;;;2.30;1.60;;;20.60;99.90;;;;;;5068248;28;20199;-78
2023/07/01 08:26:29;;;;;;;1.80;1.70;;;20.70;99.90;;;;;;5068413;28;20666;-78
2023/07/01 08:28:56;;;;;;;2.50;1.60;;;20.70;99.90;;;;;;5068546;28;20196;-78
2023/07/01 08:31:23;;;;;;;1.70;1.60;;;20.80;99.90;;;;;;5068592;28;20265;-78
2023/07/01 08:33:50;;;;;;;1.80;1.40;;;20.70;99.90;;;;;;5068232;28;21145;-79
2023/07/01 08:36:17;;;;;;;3.83;1.60;;;20.80;99.90;;;;;;5068532;28;20207;-78
2023/07/01 08:38:45;;;;;;;2.53;1.70;;;20.90;99.90;;;;;;5068636;28;20290;-78
2023/07/01 08:41:16;;;;;;;1.70;1.60;;;20.80;99.90;;;;;;5068057;28;20619;-78
2023/07/01 08:43:47;;;;;;;2.63;1.70;;;20.90;99.90;;;;;;5067919;28;20192;-78
2023/07/01 08:46:15;;;;;;;4.17;1.80;;;21.00;99.90;;;;;;5067609;28;20245;-78
2023/07/01 08:48:45;;;;;;;3.17;1.80;;;21.00;99.90;;;;;;5068690;28;20207;-79
2023/07/01 08:51:19;;;;;;;4.67;1.83;;;21.00;99.90;;;;;;5068420;28;20310;-78
2023/07/01 08:53:48;;;;;;;7.53;1.80;;;21.00;99.90;;;;;;5068661;28;20207;-79
2023/07/01 08:56:15;;;;;;;2.23;1.60;;;21.00;99.90;;;;;;5061881;28;20200;-79
2023/07/01 08:58:42;;;;;;;1.93;1.60;;;21.10;99.90;;;;;;5048809;28;20322;-79
2023/07/01 09:01:09;;;;;;;3.87;1.80;;;21.20;99.90;;;;;;5048488;28;20204;-79
2023/07/01 09:03:37;;;;;;;2.47;1.80;;;21.20;99.90;;;;;;5065499;28;20566;-79
2023/07/01 09:06:05;;;;;;;3.80;1.90;;;21.30;99.90;;;;;;5067616;28;20210;-79
2023/07/01 09:08:32;;;;;;;2.90;2.17;;;21.30;99.90;;;;;;5067973;28;20407;-79
2023/07/01 09:11:00;;;;;;;4.23;1.97;;;21.40;99.90;;;;;;5067740;28;20211;-83
2023/07/01 09:13:27;;;;;;;3.80;2.03;;;21.50;99.90;;;;;;5067793;28;20296;-79
2023/07/01 09:15:54;;;;;;;2.97;1.73;;;21.50;99.90;;;;;;5066874;28;20235;-78
2023/07/01 09:18:23;;;;;;;2.33;1.90;;;21.60;99.90;;;;;;5067681;28;20207;-79
2023/07/01 09:20:51;;;;;;;2.43;1.93;;;21.70;99.90;;;;;;5067450;28;20224;-79
2023/07/01 09:23:28;;;;;;;3.23;2.93;;;21.80;99.90;;;;;;5067222;28;20207;-79
2023/07/01 09:26:14;;;;;;;2.80;2.50;;;21.90;99.90;;;;;;5067573;28;20207;-79
2023/07/01 09:28:42;;;;;;;3.07;2.10;;;21.90;99.90;;;;;;5067607;28;20188;-79
2023/07/01 09:31:11;;;;;;;2.42;1.92;;;21.90;99.90;;;;;;5067741;28;20294;-79
2023/07/01 09:33:38;;;;;;;3.43;1.67;;;22.00;99.90;;;;;;5067311;28;21026;-79
2023/07/01 09:36:07;;;;;;;3.33;1.77;;;22.00;99.90;;;;;;5067398;28;20667;-78
2023/07/01 09:38:35;;;;;;;3.22;1.98;;;22.10;99.90;;;;;;5066983;28;20219;-78
2023/07/01 09:41:14;;;;;;;2.78;1.98;;;22.10;99.90;;;;;;5066902;28;20318;-79
2023/07/01 09:43:41;;;;;;;3.63;2.00;;;22.10;99.90;;;;;;5067254;28;20244;-79
2023/07/01 09:46:08;;;;;;;3.55;1.85;;;22.10;99.90;;;;;;5067520;28;20242;-78
2023/07/01 09:48:36;;;;;;;2.25;1.95;;;22.20;99.90;;;;;;5067147;28;20208;-76
2023/07/01 09:51:04;;;;;;;5.28;1.80;;;22.20;99.90;;;;;;5067257;28;20260;-76
2023/07/01 09:53:33;;;;;;;5.25;2.30;;;22.30;99.90;;;;;;5066258;28;20225;-76
2023/07/01 09:56:02;;;;;;;2.15;1.90;;;22.40;99.90;;;;;;5066405;28;20756;-76
2023/07/01 09:58:31;;;;;;;4.93;1.73;;;22.50;99.90;;;;;;5066877;28;20204;-76
2023/07/01 10:00:58;;;;;;;2.45;1.85;;;22.50;99.90;;;;;;5066879;28;20211;-76
2023/07/01 10:03:26;;;;;;;2.72;1.58;;;22.50;99.90;;;;;;5066917;28;20644;-76
2023/07/01 10:05:54;;;;;;;2.75;1.90;;;22.60;99.90;;;;;;5067138;28;20215;-76
2023/07/01 10:08:22;;;;;;;8.02;2.38;;;22.70;99.90;;;;;;5067052;28;20264;-76
2023/07/01 10:11:08;;;;;;;1.73;1.63;;;22.70;99.90;;;;;;5046927;28;20315;-76
2023/07/01 10:13:43;;;;;;;1.90;1.80;;;22.80;99.90;;;;;;5046844;28;20279;-77
2023/07/01 10:16:10;;;;;;;3.15;2.05;;;22.90;99.90;;;;;;5046669;28;20717;-79
2023/07/01 10:18:37;;;;;;;2.10;1.90;;;22.90;99.90;;;;;;5046663;28;20208;-77
2023/07/01 10:21:30;;;;;;;3.03;2.10;;;23.00;99.90;;;;;;5046852;28;20258;-76
2023/07/01 10:23:58;;;;;;;3.67;2.20;;;23.10;99.90;;;;;;5046975;28;20219;-77
2023/07/01 10:26:37;;;;;;;2.58;1.88;;;23.20;99.90;;;;;;5046607;28;20307;-77
2023/07/01 10:29:39;;;;;;;3.05;1.90;;;23.20;99.90;;;;;;5046399;28;20211;-77
2023/07/01 10:32:31;;;;;;;2.25;2.10;;;23.30;99.90;;;;;;5046172;28;20331;-77
2023/07/01 10:35:15;;;;;;;4.60;1.80;;;23.40;99.90;;;;;;5043402;28;20709;-77
2023/07/01 10:37:44;;;;;;;2.42;2.03;;;23.60;99.90;;;;;;5046531;28;20216;-77
2023/07/01 10:40:43;;;;;;;6.40;5.90;;;23.80;99.90;;;;;;5046568;28;20242;-77
2023/07/01 10:43:26;;;;;;;6.78;2.45;;;23.80;99.90;;;;;;5046560;28;20227;-77
2023/07/01 10:46:12;;;;;;;2.78;2.38;;;23.70;99.90;;;;;;5046757;28;20196;-77
2023/07/01 10:48:40;;;;;;;3.65;2.13;;;23.50;99.90;;;;;;5046137;28;20323;-77
2023/07/01 10:51:08;;;;;;;2.53;1.95;;;23.40;99.90;;;;;;5046236;28;20215;-76
2023/07/01 10:53:58;;;;;;;2.65;2.15;;;23.40;99.90;;;;;;5045834;28;20243;-77
2023/07/01 10:56:26;;;;;;;3.38;2.05;;;23.50;99.90;;;;;;5046252;28;20228;-77
2023/07/01 10:59:22;;;;;;;3.53;1.83;;;23.70;99.90;;;;;;5046002;28;20295;-77
2023/07/01 11:01:51;;;;;;;3.85;2.63;;;24.00;99.90;;;;;;5045770;28;20208;-77
2023/07/01 11:04:19;;;;;;;2.47;2.10;;;23.90;99.90;;;;;;5045479;28;20254;-77
2023/07/01 11:06:50;;;;;;;1.90;1.77;;;24.00;99.90;;;;;;5045747;28;20243;-77
2023/07/01 11:09:28;;;;;;;3.47;2.08;;;24.10;99.90;;;;;;5045657;28;20276;-77
2023/07/01 11:11:56;;;;;;;7.53;2.38;;;24.10;99.90;;;;;;5045298;28;20195;-77
2023/07/01 11:14:31;;;;;;;3.78;2.17;;;24.20;99.90;;;;;;5045438;28;20241;-76
2023/07/01 11:17:07;;;;;;;5.45;2.20;;;24.30;99.90;;;;;;5045745;28;20196;-77
2023/07/01 11:19:34;;;;;;;2.65;2.00;;;24.10;99.90;;;;;;5045681;28;20287;-77
2023/07/01 11:22:02;;;;;;;2.38;2.13;;;24.00;99.90;;;;;;5045783;28;20214;-77
2023/07/01 11:24:29;;;;;;;2.10;2.00;;;23.90;99.90;;;;;;5045737;28;20208;-77
2023/07/01 11:27:02;;;;;;;5.93;2.50;;;23.90;99.90;;;;;;5045874;28;20223;-77
2023/07/01 11:29:29;;;;;;;4.35;1.98;;;24.00;99.90;;;;;;5045421;28;20741;-77
2023/07/01 11:32:00;;;;;;;5.85;2.00;;;24.30;99.90;;;;;;5045649;28;20212;-77
2023/07/01 11:34:29;;;;;;;2.53;2.33;;;24.60;99.90;;;;;;5042236;28;20406;-77
2023/07/01 11:36:57;;;;;;;2.70;2.50;;;24.80;99.90;;;;;;5044337;28;20764;-77
2023/07/01 11:39:24;;;;;;;4.15;2.38;;;25.10;99.90;;;;;;5039643;28;20308;-77
2023/07/01 11:41:52;;;;;;;3.92;2.40;;;25.20;99.90;;;;;;5025778;28;20311;-77
2023/07/01 11:44:21;;;;;;;3.38;2.30;;;24.70;99.70;;;;;;5026937;28;20248;-77
2023/07/01 11:46:48;;;;;;;2.88;2.00;;;24.50;99.90;;;;;;5045347;28;20303;-77
2023/07/01 11:49:17;;;;;;;3.05;2.50;;;24.70;99.90;;;;;;5045380;28;20285;-77
2023/07/01 11:51:47;;;;;;;2.38;2.17;;;24.50;99.90;;;;;;5045417;28;20234;-78
2023/07/01 11:54:15;;;;;;;3.35;1.98;;;24.20;99.90;;;;;;5045994;28;20212;-77
2023/07/01 11:56:42;;;;;;;3.50;2.20;;;24.30;99.90;;;;;;5045618;28;20289;-77
2023/07/01 11:59:09;;;;;;;3.72;2.63;;;24.30;99.90;;;;;;5045237;28;20313;-77
2023/07/01 12:01:38;;;;;;;4.25;1.90;;;24.50;99.90;;;;;;5045292;28;20800;-77
2023/07/01 12:04:16;;;;;;;5.85;2.42;;;24.70;99.90;;;;;;5045703;28;20212;-77
2023/07/01 12:06:45;;;;;;;4.30;2.25;;;24.80;99.90;;;;;;5044973;28;20203;-77
2023/07/01 12:09:26;;;;;;;3.42;1.92;;;25.00;99.90;;;;;;5045649;28;20247;-77
2023/07/01 12:11:54;;;;;;;2.58;2.17;;;25.40;99.90;;;;;;5045155;28;20258;-77
2023/07/01 12:14:22;;;;;;;4.63;2.08;;;25.70;99.30;;;;;;5045010;28;20610;-77
2023/07/01 12:16:50;;;;;;;4.00;2.00;;;25.80;99.30;;;;;;5045639;28;20235;-76
2023/07/01 12:19:17;;;;;;;4.38;1.98;;;25.50;98.50;;;;;;5045466;28;20295;-77
2023/07/01 12:21:46;;;;;;;3.20;2.50;;;25.50;98.40;;;;;;5045562;28;20258;-77
2023/07/01 12:24:20;;;;;;;6.28;2.13;;;25.70;98.30;;;;;;5045612;28;20235;-76
2023/07/01 12:26:48;;;;;;;3.35;2.15;;;25.80;98.10;;;;;;5045142;28;20373;-77
2023/07/01 12:29:15;;;;;;;6.70;2.50;;;25.90;97.30;;;;;;5045463;28;20523;-77
2023/07/01 12:31:42;;;;;;;3.25;2.13;;;26.10;98.20;;;;;;5045471;28;20266;-76
2023/07/01 12:34:09;;;;;;;11.07;2.60;;;26.10;96.80;;;;;;5045608;28;20311;-77
2023/07/01 12:36:36;;;;;;;2.97;2.00;;;25.90;97.00;;;;;;5045121;28;20598;-77
2023/07/01 12:39:06;;;;;;;2.80;2.40;;;25.70;97.80;;;;;;5045283;28;20208;-77
2023/07/01 12:41:35;;;;;;;2.25;2.05;;;25.40;97.50;;;;;;5044524;28;20246;-76
2023/07/01 12:44:03;;;;;;;6.60;2.05;;;25.30;98.00;;;;;;5045008;28;20246;-76
2023/07/01 12:46:30;;;;;;;3.65;2.20;;;25.40;97.30;;;;;;5045019;28;20267;-76
2023/07/01 12:48:57;;;;;;;6.38;2.40;;;25.30;96.60;;;;;;5044896;28;20664;-76
2023/07/01 12:51:24;;;;;;;2.83;2.38;;;25.30;96.40;;;;;;5045410;28;20291;-77
2023/07/01 12:53:51;;;;;;;4.22;2.30;;;25.30;97.00;;;;;;5048708;28;20307;-78